Time;durP1;ratioP1;P1;durP2;ratioP2;P2;SDS_P1;SDS_P2;PMS_P1;PMS_P2;Temp;Humidity;BMP_temperature;BMP_pressure;BME280_temperature;BME280_humidity;BME280_pressure;Samples;Min_cycle;Max_cycle;Signal;HPM_P1;HPM_P2
2022/11/17 00:00:47;;;;;;;9.37;7.83;;;;;;;9.41;98.18;96411.50;5087669;23;20233;-88
2022/11/17 00:02:50;;;;;;;11.55;8.07;;;;;;;9.41;98.25;96415.84;5113139;23;20670;-88
2022/11/17 00:04:53;;;;;;;11.85;7.10;;;;;;;9.39;98.43;96413.38;5089279;23;20204;-88
2022/11/17 00:06:57;;;;;;;13.30;8.77;;;;;;;9.40;97.94;96407.22;5113920;23;20273;-88
2022/11/17 00:09:00;;;;;;;11.48;7.78;;;;;;;9.42;98.26;96404.50;5113796;23;20562;-88
2022/11/17 00:11:03;;;;;;;12.73;7.28;;;;;;;9.43;98.45;96400.94;5090707;23;20184;-88
2022/11/17 00:15:29;;;;;;;8.75;7.10;;;;;;;9.47;98.36;96399.69;5114514;23;20180;-87
2022/11/17 00:17:32;;;;;;;10.10;7.30;;;;;;;9.45;98.99;96399.81;5089449;23;20186;-88
2022/11/17 00:21:57;;;;;;;11.73;7.30;;;;;;;9.45;98.94;96396.41;5064557;23;20642;-88
2022/11/17 00:24:00;;;;;;;10.23;7.83;;;;;;;9.44;98.71;96390.41;5089860;23;21147;-88
2022/11/17 00:26:03;;;;;;;9.70;6.87;;;;;;;9.43;98.75;96388.75;5111997;23;20626;-88
2022/11/17 00:28:06;;;;;;;12.40;8.13;;;;;;;9.45;98.56;96375.59;5114918;23;20581;-88
2022/11/17 00:34:03;;;;;;;11.18;8.65;;;;;;;9.46;98.77;96382.44;5138924;23;20181;-88
2022/11/17 00:35:10;;;;;;;11.13;8.30;;;;;;;9.46;98.80;96374.66;5089155;23;20171;-88
2022/11/17 00:37:13;;;;;;;11.97;8.30;;;;;;;9.47;98.71;96368.47;5113068;23;20574;-88
2022/11/17 00:39:18;;;;;;;9.23;7.50;;;;;;;9.47;98.77;96371.06;5089869;23;20579;-88
2022/11/17 00:41:21;;;;;;;11.75;8.73;;;;;;;9.48;98.97;96364.91;5114409;23;20238;-87
2022/11/17 00:43:24;;;;;;;11.85;9.10;;;;;;;9.48;98.93;96359.69;5089393;23;20255;-87
2022/11/17 00:45:27;;;;;;;14.90;9.80;;;;;;;9.46;98.58;96346.03;5112964;23;20268;-88
2022/11/17 00:47:30;;;;;;;13.70;9.03;;;;;;;9.44;98.79;96347.94;5089468;23;21139;-88
2022/11/17 00:49:35;;;;;;;12.00;9.18;;;;;;;9.47;98.83;96339.84;5089564;23;20583;-88
2022/11/17 00:51:38;;;;;;;11.57;9.43;;;;;;;9.46;99.64;96331.22;5113365;23;20185;-88
2022/11/17 00:53:41;;;;;;;13.02;10.27;;;;;;;9.49;98.89;96324.94;5088951;23;21165;-88
2022/11/17 00:55:44;;;;;;;15.75;8.85;;;;;;;9.48;98.93;96329.28;5114297;23;20635;-88
2022/11/17 00:57:47;;;;;;;11.75;7.82;;;;;;;9.44;99.46;96325.34;5113939;23;20202;-88
2022/11/17 00:59:50;;;;;;;11.40;7.90;;;;;;;9.42;99.36;96329.03;5090594;23;20178;-88
2022/11/17 01:01:54;;;;;;;13.93;9.95;;;;;;;9.43;98.70;96330.69;5088973;23;20582;-87
2022/11/17 01:04:02;;;;;;;14.87;11.70;;;;;;;9.44;99.34;96333.16;5114273;23;20199;-87
2022/11/17 01:06:10;;;;;;;10.93;8.90;;;;;;;9.43;99.17;96326.31;5089317;23;21151;-88
2022/11/17 01:08:13;;;;;;;13.37;9.03;;;;;;;9.46;99.23;96325.22;5115228;23;20574;-88
2022/11/17 01:10:16;;;;;;;19.88;14.18;;;;;;;9.48;99.24;96328.47;5089249;23;20615;-87
2022/11/17 01:12:19;;;;;;;26.70;17.10;;;;;;;9.47;99.38;96326.84;5138803;23;20213;-87
2022/11/17 01:14:23;;;;;;;14.77;11.23;;;;;;;9.47;100.00;96337.22;5088972;23;20714;-87
2022/11/17 01:16:28;;;;;;;12.23;9.80;;;;;;;9.51;99.38;96329.00;5114071;23;20558;-88
2022/11/17 01:18:31;;;;;;;14.05;10.70;;;;;;;9.53;99.53;96323.66;5089992;23;20172;-88
2022/11/17 01:20:34;;;;;;;17.70;12.68;;;;;;;9.54;99.97;96315.72;5089410;23;20179;-88
2022/11/17 01:22:38;;;;;;;16.23;11.13;;;;;;;9.57;100.00;96325.84;5112885;23;20614;-87
2022/11/17 01:24:41;;;;;;;14.60;11.33;;;;;;;9.57;100.00;96322.44;5114117;23;20179;-88
2022/11/17 01:26:45;;;;;;;13.15;10.45;;;;;;;9.60;100.00;96322.16;5090260;23;20637;-87
2022/11/17 01:28:49;;;;;;;13.77;9.95;;;;;;;9.60;99.80;96306.53;5113701;23;20183;-88
2022/11/17 01:30:59;;;;;;;10.57;8.33;;;;;;;9.63;99.68;96307.06;5088222;23;20187;-88
2022/11/17 01:33:02;;;;;;;9.00;7.55;;;;;;;9.64;100.00;96308.72;5089155;23;20693;-88
2022/11/17 01:35:06;;;;;;;9.97;7.87;;;;;;;9.65;100.00;96302.56;5089342;23;20198;-88
2022/11/17 01:37:20;;;;;;;10.73;8.33;;;;;;;9.65;100.00;96305.16;5089155;23;20579;-87
2022/11/17 01:39:26;;;;;;;8.88;7.15;;;;;;;9.65;100.00;96299.09;5089178;23;20628;-88
2022/11/17 01:41:29;;;;;;;8.70;7.23;;;;;;;9.67;99.80;96297.22;5114149;23;20186;-87
2022/11/17 01:43:40;;;;;;;10.10;7.30;;;;;;;9.65;99.71;96293.91;5090036;23;20618;-88
2022/11/17 01:45:44;;;;;;;10.88;7.07;;;;;;;9.65;100.00;96297.34;5113694;23;21321;-88
2022/11/17 01:47:49;;;;;;;12.10;7.40;;;;;;;9.66;99.95;96288.56;5114491;23;20210;-88
2022/11/17 01:49:55;;;;;;;9.60;6.70;;;;;;;9.66;100.00;96283.34;5089394;23;20677;-88
2022/11/17 01:52:03;;;;;;;7.82;6.30;;;;;;;9.63;100.00;96286.25;5112636;23;20586;-87
2022/11/17 01:54:06;;;;;;;9.30;8.05;;;;;;;9.64;100.00;96271.47;5113150;23;20219;-88
2022/11/17 01:56:13;;;;;;;11.57;7.47;;;;;;;9.65;100.00;96270.47;5114568;23;20187;-87
2022/11/17 01:58:19;;;;;;;9.48;7.50;;;;;;;9.66;100.00;96265.13;5114161;23;20593;-87
2022/11/17 02:00:23;;;;;;;10.63;7.43;;;;;;;9.64;100.00;96256.66;5113632;23;20179;-88
2022/11/17 02:02:26;;;;;;;8.65;6.65;;;;;;;9.67;100.00;96263.38;5088666;23;20281;-88
2022/11/17 02:04:31;;;;;;;4.57;4.03;;;;;;;9.69;100.00;96253.63;5089986;23;20203;-88
2022/11/17 02:06:36;;;;;;;5.53;3.53;;;;;;;9.80;100.00;96248.22;5090462;23;20619;-87
2022/11/17 02:08:40;;;;;;;4.17;3.33;;;;;;;9.93;100.00;96241.72;5090519;23;20582;-87
2022/11/17 02:10:43;;;;;;;10.10;3.60;;;;;;;10.06;100.00;96247.44;5114466;23;21137;-88
2022/11/17 02:12:55;;;;;;;3.93;2.97;;;;;;;10.16;100.00;96238.56;5113790;23;20250;-88
2022/11/17 02:14:58;;;;;;;3.58;3.10;;;;;;;10.25;100.00;96236.88;5089532;23;20575;-88
2022/11/17 02:17:02;;;;;;;5.30;3.40;;;;;;;10.32;100.00;96237.91;5114514;23;20178;-87
2022/11/17 02:19:16;;;;;;;5.20;2.93;;;;;;;10.39;100.00;96235.38;5114802;23;20578;-87
2022/11/17 02:21:32;;;;;;;4.87;4.30;;;;;;;10.45;100.00;96229.56;5115071;23;20582;-88
2022/11/17 02:23:58;;;;;;;7.20;5.07;;;;;;;10.51;100.00;96215.13;5089589;23;20607;-88
2022/11/17 02:26:51;;;;;;;9.40;6.10;;;;;;;10.51;99.41;96212.53;5090322;23;21282;-88
2022/11/17 02:29:00;;;;;;;13.00;7.33;;;;;;;10.46;100.00;96196.50;5016418;23;20617;-88
2022/11/17 02:31:12;;;;;;;10.43;6.63;;;;;;;10.44;100.00;96186.22;5081892;23;20593;-89
2022/11/17 02:33:19;;;;;;;7.10;5.10;;;;;;;10.48;99.68;96181.56;5115865;23;21110;-88
2022/11/17 02:35:26;;;;;;;4.90;3.63;;;;;;;10.53;100.00;96174.09;5112664;23;20636;-88
2022/11/17 02:37:33;;;;;;;7.13;4.13;;;;;;;10.60;99.64;96167.28;5114447;23;20567;-88
2022/11/17 02:39:40;;;;;;;6.15;4.25;;;;;;;10.66;99.54;96171.91;5089864;23;20575;-88
2022/11/17 02:41:46;;;;;;;4.50;3.10;;;;;;;10.71;98.51;96170.47;5114927;23;20588;-88
2022/11/17 02:46:13;;;;;;;5.20;2.37;;;;;;;10.80;97.93;96162.56;5085408;23;20203;-87
2022/11/17 02:48:19;;;;;;;5.33;2.13;;;;;;;10.87;96.88;96162.78;5088393;23;21106;-88
2022/11/17 02:50:23;;;;;;;2.03;1.80;;;;;;;10.89;96.70;96156.41;5113345;23;20915;-87
2022/11/17 02:52:30;;;;;;;3.20;2.10;;;;;;;10.93;95.38;96154.31;5088964;23;20609;-87
2022/11/17 02:54:33;;;;;;;3.83;2.23;;;;;;;10.92;94.74;96148.28;5114011;23;20601;-88
2022/11/17 02:56:40;;;;;;;3.40;2.03;;;;;;;10.94;95.26;96150.75;5112700;23;20578;-88
2022/11/17 02:58:44;;;;;;;3.23;2.10;;;;;;;10.98;94.26;96145.06;5089055;23;20677;-87
2022/11/17 03:00:55;;;;;;;6.33;2.60;;;;;;;11.00;94.50;96137.06;5112688;23;20574;-87
2022/11/17 03:03:15;;;;;;;2.87;2.33;;;;;;;10.99;94.49;96128.44;5088844;23;20584;-87
2022/11/17 03:05:23;;;;;;;2.60;2.03;;;;;;;11.00;94.19;96113.59;5116468;23;20578;-88
2022/11/17 03:07:39;;;;;;;3.30;2.27;;;;;;;10.99;94.18;96094.53;5089577;23;20682;-88
2022/11/17 03:09:47;;;;;;;3.10;2.40;;;;;;;10.98;94.47;96110.34;5089056;23;20947;-88
2022/11/17 03:11:54;;;;;;;4.03;2.60;;;;;;;10.94;93.14;96109.81;5140491;23;20629;-88
2022/11/17 03:14:02;;;;;;;2.77;2.20;;;;;;;10.95;94.34;96108.84;5088941;23;20567;-87
2022/11/17 03:16:15;;;;;;;3.47;2.17;;;;;;;10.98;92.55;96102.53;5090451;23;20578;-87
2022/11/17 03:18:21;;;;;;;3.93;2.30;;;;;;;10.99;93.42;96110.19;5114286;23;20607;-88
2022/11/17 03:20:26;;;;;;;3.70;2.80;;;;;;;11.02;92.38;96104.66;5089350;23;20648;-88
2022/11/17 03:22:34;;;;;;;3.70;2.70;;;;;;;11.04;93.71;96099.28;5113066;23;21074;-88
2022/11/17 03:24:40;;;;;;;2.67;2.43;;;;;;;11.06;91.92;96105.16;5113304;23;20613;-88
2022/11/17 03:26:47;;;;;;;3.80;2.57;;;;;;;11.07;91.83;96112.81;5091115;23;20653;-88
2022/11/17 03:28:50;;;;;;;2.73;2.33;;;;;;;11.10;92.54;96115.13;5114660;23;20586;-88
2022/11/17 03:30:53;;;;;;;6.23;2.60;;;;;;;11.12;93.57;96120.19;5114467;23;20581;-88
2022/11/17 03:33:01;;;;;;;4.20;2.60;;;;;;;11.17;91.90;96154.44;5113157;23;20570;-88
2022/11/17 03:35:11;;;;;;;4.30;3.20;;;;;;;11.20;92.27;96156.75;5089286;23;21325;-88
2022/11/17 03:37:15;;;;;;;4.77;2.90;;;;;;;11.24;93.03;96155.47;5113661;23;20574;-87
2022/11/17 03:39:22;;;;;;;4.90;3.00;;;;;;;11.27;91.19;96158.56;5112390;23;21122;-87
2022/11/17 03:41:26;;;;;;;3.00;2.57;;;;;;;11.31;92.25;96159.91;5088467;23;21165;-88
2022/11/17 03:43:31;;;;;;;3.10;2.60;;;;;;;11.35;91.99;96158.59;5113088;23;20622;-87
2022/11/17 03:45:35;;;;;;;4.87;2.73;;;;;;;11.38;92.17;96159.13;5111787;23;20567;-87
2022/11/17 03:47:39;;;;;;;3.73;2.87;;;;;;;11.38;91.39;96160.91;5113685;23;20617;-87
2022/11/17 03:49:45;;;;;;;3.87;3.00;;;;;;;11.40;90.69;96161.59;5113797;23;20574;-87
2022/11/17 03:51:49;;;;;;;4.53;3.13;;;;;;;11.42;90.12;96146.56;5088439;23;20582;-87
2022/11/17 03:53:52;;;;;;;3.13;2.83;;;;;;;11.42;92.29;96138.75;5088264;23;20606;-87
2022/11/17 03:56:00;;;;;;;5.30;3.37;;;;;;;11.43;90.78;96140.38;5135650;23;20737;-88
2022/11/17 03:58:06;;;;;;;3.23;2.90;;;;;;;11.44;90.94;96137.63;5113222;23;20604;-88
2022/11/17 04:00:12;;;;;;;4.20;2.80;;;;;;;11.40;91.52;96138.91;5088576;23;20685;-87
2022/11/17 04:02:17;;;;;;;4.20;2.60;;;;;;;11.36;93.52;96134.97;5088373;23;20626;-87
2022/11/17 04:04:22;;;;;;;5.07;3.03;;;;;;;11.34;92.07;96130.88;5088468;23;20606;-87
2022/11/17 04:06:25;;;;;;;5.60;3.40;;;;;;;11.34;93.38;96130.88;5088806;23;20634;-88
2022/11/17 04:08:30;;;;;;;3.80;2.97;;;;;;;11.33;92.81;96134.47;5088868;23;20602;-88
2022/11/17 04:15:55;;;;;;;4.00;2.83;;;;;;;11.34;93.82;96130.88;5113494;23;20574;-88
2022/11/17 04:17:45;;;;;;;4.80;2.97;;;;;;;11.35;92.30;96135.94;5058297;23;20640;-87
2022/11/17 04:19:48;;;;;;;3.33;2.47;;;;;;;11.36;94.26;96150.63;5112453;23;20605;-88
2022/11/17 04:21:51;;;;;;;3.50;3.10;;;;;;;11.37;93.64;96148.84;5087498;23;20634;-88
2022/11/17 04:23:56;;;;;;;3.43;2.67;;;;;;;11.37;93.18;96135.78;5137307;23;20581;-87
2022/11/17 04:28:38;;;;;;;6.07;3.10;;;;;;;11.34;92.03;96130.88;5088452;23;20641;-87
2022/11/17 04:30:41;;;;;;;3.90;3.07;;;;;;;11.30;93.93;96119.94;5113089;23;20613;-87
2022/11/17 04:32:44;;;;;;;4.90;3.10;;;;;;;11.28;93.56;96126.31;5087452;23;20583;-87
2022/11/17 04:34:47;;;;;;;3.40;3.03;;;;;;;11.29;93.66;96125.34;5088142;23;20575;-87
2022/11/17 04:36:50;;;;;;;4.47;2.83;;;;;;;11.29;93.34;96120.13;5113219;23;20578;-87
2022/11/17 04:38:56;;;;;;;4.60;3.13;;;;;;;11.29;93.43;96118.31;5112735;23;20590;-87
2022/11/17 04:43:25;;;;;;;5.30;3.33;;;;;;;11.29;95.13;96128.75;5113008;23;20559;-87
2022/11/17 04:45:28;;;;;;;6.00;3.23;;;;;;;11.32;94.96;96125.00;5088534;23;20614;-87
2022/11/17 04:47:31;;;;;;;4.60;3.03;;;;;;;11.34;96.04;96118.66;5112475;23;20610;-87
2022/11/17 04:49:34;;;;;;;5.27;3.20;;;;;;;11.33;95.93;96113.59;5113357;23;20570;-88
2022/11/17 04:51:37;;;;;;;3.23;2.77;;;;;;;11.33;96.38;96116.19;5088147;23;20658;-88
2022/11/17 04:53:41;;;;;;;3.70;2.83;;;;;;;11.31;96.46;96115.53;5087628;23;20702;-88
2022/11/17 04:55:46;;;;;;;4.20;2.63;;;;;;;11.31;96.83;96116.34;5114644;23;20566;-88
2022/11/17 04:57:48;;;;;;;4.10;3.10;;;;;;;11.33;95.46;96124.03;5090411;23;20674;-88
2022/11/17 04:59:51;;;;;;;4.00;2.77;;;;;;;11.35;95.83;96127.28;5090304;23;20931;-88
2022/11/17 05:01:54;;;;;;;3.83;2.80;;;;;;;11.38;95.78;96122.59;5090637;23;20579;-88
2022/11/17 05:04:04;;;;;;;4.13;2.80;;;;;;;11.40;96.45;96117.22;5139870;23;20654;-87
2022/11/17 05:06:08;;;;;;;3.40;2.63;;;;;;;11.43;95.88;96124.72;5089485;23;20593;-88
2022/11/17 05:08:11;;;;;;;3.50;3.10;;;;;;;11.44;95.67;96123.72;5138315;23;20682;-88
2022/11/17 05:10:14;;;;;;;4.50;2.83;;;;;;;11.44;97.55;96127.19;5115352;23;20636;-88
2022/11/17 05:14:35;;;;;;;6.53;2.87;;;;;;;11.42;96.29;96128.31;5042310;23;20591;-87
2022/11/17 05:18:59;;;;;;;10.67;9.57;;;;;;;11.45;96.65;96139.22;5090291;23;20572;-86
2022/11/17 05:21:02;;;;;;;6.50;5.70;;;;;;;11.42;97.46;96136.94;5089900;23;20619;-87
2022/11/17 05:25:25;;;;;;;6.50;5.20;;;;;;;11.27;97.21;96129.88;5090535;23;20638;-87
2022/11/17 05:27:30;;;;;;;7.28;5.32;;;;;;;11.26;98.29;96133.47;5089385;23;20709;-88
2022/11/17 05:29:33;;;;;;;7.20;5.50;;;;;;;11.26;99.58;96133.47;5115161;23;20631;-88
2022/11/17 05:31:36;;;;;;;7.00;5.13;;;;;;;11.27;99.30;96131.66;5088523;23;20575;-88
2022/11/17 05:33:39;;;;;;;9.00;5.90;;;;;;;11.26;99.00;96128.25;5090179;23;20614;-88
2022/11/17 05:35:42;;;;;;;7.67;5.70;;;;;;;11.25;100.00;96133.63;5090405;23;20622;-88
2022/11/17 05:37:45;;;;;;;9.03;6.17;;;;;;;11.25;99.00;96137.03;5089933;23;21147;-87
2022/11/17 05:39:48;;;;;;;7.17;5.10;;;;;;;11.25;99.81;96141.47;5114616;23;20586;-87
2022/11/17 05:41:51;;;;;;;6.90;5.10;;;;;;;11.25;99.89;96151.91;5088956;23;20587;-88
2022/11/17 05:43:56;;;;;;;5.93;4.70;;;;;;;11.25;100.00;96141.47;5115595;23;20570;-87
2022/11/17 05:45:59;;;;;;;5.80;4.60;;;;;;;11.25;99.55;96136.25;5089674;23;21282;-87
2022/11/17 05:48:02;;;;;;;5.77;4.93;;;;;;;11.20;99.75;96136.72;5114970;23;20598;-87
2022/11/17 05:50:06;;;;;;;6.10;4.63;;;;;;;11.18;100.00;96141.25;5089352;23;20691;-87
2022/11/17 05:52:09;;;;;;;5.63;4.63;;;;;;;11.16;99.86;96132.75;5113426;23;21133;-88
2022/11/17 05:54:12;;;;;;;5.07;4.43;;;;;;;11.16;100.00;96142.41;5116930;23;20627;-87
2022/11/17 05:56:28;;;;;;;4.93;4.23;;;;;;;11.11;100.00;96134.19;5114065;23;20610;-87
2022/11/17 05:58:33;;;;;;;5.83;4.57;;;;;;;11.07;100.00;96141.53;5090035;23;20583;-88
2022/11/17 06:00:39;;;;;;;5.10;4.20;;;;;;;11.04;100.00;96134.00;5089889;23;20592;-88
2022/11/17 06:02:47;;;;;;;6.80;4.80;;;;;;;11.04;100.00;96148.84;5112780;23;21005;-87
2022/11/17 06:04:51;;;;;;;5.40;4.30;;;;;;;11.01;99.81;96136.94;5114118;23;20932;-87
2022/11/17 06:06:57;;;;;;;7.37;4.30;;;;;;;11.01;99.95;96142.16;5113996;23;20578;-87
2022/11/17 06:09:01;;;;;;;5.93;4.13;;;;;;;11.00;100.00;96135.28;5090586;23;20633;-88
2022/11/17 06:11:04;;;;;;;7.27;4.40;;;;;;;11.03;100.00;96126.34;5089172;23;20582;-86
2022/11/17 06:13:07;;;;;;;5.40;4.00;;;;;;;11.04;100.00;96120.16;5115836;23;20585;-86
2022/11/17 06:15:10;;;;;;;4.20;3.37;;;;;;;11.06;100.00;96111.19;5114203;23;20619;-87
2022/11/17 06:17:19;;;;;;;4.00;3.30;;;;;;;11.08;100.00;96104.03;5090180;23;20606;-87
2022/11/17 06:19:27;;;;;;;4.93;3.60;;;;;;;11.12;100.00;96109.75;5115690;23;20574;-87
2022/11/17 06:21:31;;;;;;;3.83;3.40;;;;;;;11.14;100.00;96121.69;5116035;23;20581;-87
2022/11/17 06:23:54;;;;;;;4.50;3.70;;;;;;;11.13;99.97;96117.44;5088879;23;20601;-87
2022/11/17 06:25:57;;;;;;;5.50;3.13;;;;;;;11.14;100.00;96132.13;5112797;23;20577;-87
2022/11/17 06:28:02;;;;;;;4.13;2.97;;;;;;;11.16;99.70;96127.53;5088684;23;20586;-87
2022/11/17 06:30:07;;;;;;;4.13;2.83;;;;;;;11.17;99.88;96121.38;5088749;23;20571;-86
2022/11/17 06:32:10;;;;;;;3.77;3.27;;;;;;;11.16;99.88;96127.53;5088190;23;20610;-86
2022/11/17 06:34:14;;;;;;;5.13;3.60;;;;;;;11.15;100.00;96125.09;5112710;23;20641;-87
2022/11/17 06:36:17;;;;;;;4.93;3.40;;;;;;;11.15;100.00;96130.31;5138002;23;21085;-87
2022/11/17 06:38:20;;;;;;;5.30;3.57;;;;;;;11.15;100.00;96127.69;5087212;23;20578;-86
2022/11/17 06:40:23;;;;;;;4.80;3.47;;;;;;;11.16;99.55;96121.53;5087023;23;20682;-86
2022/11/17 06:44:43;;;;;;;5.10;4.20;;;;;;;11.17;99.95;96126.59;5088705;23;21005;-87
2022/11/17 06:46:46;;;;;;;5.23;3.77;;;;;;;11.18;99.45;96137.81;5088316;23;21146;-86
2022/11/17 06:48:54;;;;;;;5.80;3.70;;;;;;;11.22;100.00;96142.56;5088636;23;20629;-87
2022/11/17 06:50:58;;;;;;;4.50;3.40;;;;;;;11.26;99.99;96140.47;5089171;23;21151;-86
2022/11/17 06:53:03;;;;;;;3.53;2.87;;;;;;;11.30;100.00;96143.41;5112515;23;20589;-85
2022/11/17 06:55:08;;;;;;;3.80;3.17;;;;;;;11.34;100.00;96149.16;5111024;23;21193;-85
2022/11/17 06:57:11;;;;;;;4.47;3.30;;;;;;;11.36;100.00;96155.84;5087777;23;20607;-86
2022/11/17 06:59:14;;;;;;;3.90;2.70;;;;;;;11.38;100.00;96155.69;5113060;23;21209;-86
2022/11/17 07:01:18;;;;;;;3.50;2.20;;;;;;;11.40;100.00;96156.38;5089035;23;20603;-86
2022/11/17 07:03:21;;;;;;;6.00;2.57;;;;;;;11.47;99.79;96167.81;5088822;23;20630;-86
2022/11/17 07:05:24;;;;;;;4.23;2.77;;;;;;;11.63;100.00;96167.91;5088900;23;20910;-86
2022/11/17 07:07:28;;;;;;;2.80;2.00;;;;;;;11.74;99.33;96160.56;5088302;23;21008;-86
2022/11/17 07:09:31;;;;;;;2.50;1.93;;;;;;;11.80;99.64;96149.50;5111680;23;20614;-85
2022/11/17 07:11:35;;;;;;;5.20;1.97;;;;;;;11.86;100.00;96147.06;5110927;23;20621;-86
2022/11/17 07:13:39;;;;;;;4.00;2.30;;;;;;;11.93;99.28;96152.47;5113166;23;21236;-86
2022/11/17 07:15:42;;;;;;;6.07;4.70;;;;;;;11.99;98.35;96144.00;5087869;23;20586;-85
2022/11/17 07:17:45;;;;;;;2.70;1.53;;;;;;;12.02;97.64;96141.88;5088873;23;20626;-85
2022/11/17 07:19:48;;;;;;;6.70;4.20;;;;;;;12.09;99.30;96150.72;5113961;23;20634;-86
2022/11/17 07:21:51;;;;;;;3.07;1.80;;;;;;;12.27;98.87;96149.56;5089008;23;20583;-85
2022/11/17 07:23:56;;;;;;;3.27;1.70;;;;;;;12.53;97.26;96150.22;5110219;23;20583;-86
2022/11/17 07:25:59;;;;;;;2.57;1.90;;;;;;;12.76;96.65;96152.03;5088529;23;20701;-86
2022/11/17 07:28:02;;;;;;;2.20;1.50;;;;;;;13.00;96.50;96145.94;5113499;23;20624;-86
2022/11/17 07:30:06;;;;;;;2.67;1.50;;;;;;;13.16;95.38;96157.22;5088165;23;20683;-86
2022/11/17 07:32:13;;;;;;;2.00;1.63;;;;;;;13.20;94.69;96158.50;5088816;23;20594;-87
2022/11/17 07:34:16;;;;;;;4.53;1.77;;;;;;;13.19;94.91;96162.91;5088571;23;20614;-85
2022/11/17 07:36:19;;;;;;;4.73;2.03;;;;;;;13.24;94.34;96151.94;5088322;23;21248;-86
2022/11/17 07:38:23;;;;;;;3.03;1.70;;;;;;;13.40;93.90;96146.66;5112696;23;20587;-85
2022/11/17 07:40:27;;;;;;;3.83;1.43;;;;;;;13.48;92.25;96150.06;5112804;23;20588;-86
2022/11/17 07:42:31;;;;;;;2.80;1.60;;;;;;;13.40;92.07;96146.66;5087237;23;20675;-86
2022/11/17 07:44:34;;;;;;;2.87;1.77;;;;;;;13.29;91.81;96140.00;5138286;23;20563;-87
2022/11/17 07:46:37;;;;;;;3.73;1.40;;;;;;;13.22;92.11;96133.78;5089092;23;20691;-86
2022/11/17 07:48:41;;;;;;;3.03;2.00;;;;;;;13.16;92.18;96135.47;5087151;23;20595;-86
2022/11/17 07:50:44;;;;;;;5.67;3.23;;;;;;;13.12;91.31;96147.25;5086666;23;21007;-85
2022/11/17 07:52:48;;;;;;;3.40;1.63;;;;;;;13.08;91.38;96146.75;5087640;23;20580;-84
2022/11/17 07:54:51;;;;;;;3.00;1.60;;;;;;;13.06;91.21;96137.44;5083295;23;21261;-86
2022/11/17 07:56:55;;;;;;;5.17;1.87;;;;;;;13.06;92.23;96151.31;5110174;23;20580;-87
2022/11/17 07:58:58;;;;;;;2.67;1.50;;;;;;;13.05;91.99;96152.34;5109274;23;20953;-86
2022/11/17 08:01:04;;;;;;;2.00;1.17;;;;;;;13.05;91.61;96154.13;5110544;23;21247;-86
2022/11/17 08:03:08;;;;;;;2.07;1.40;;;;;;;13.04;91.77;96148.06;5087825;23;20591;-86
2022/11/17 08:05:12;;;;;;;2.67;1.70;;;;;;;13.05;91.40;96149.72;5088606;23;20576;-87
2022/11/17 08:07:15;;;;;;;3.80;1.70;;;;;;;13.07;91.91;96149.56;5088823;23;20587;-86
2022/11/17 08:09:18;;;;;;;2.00;1.53;;;;;;;13.10;91.45;96146.59;5088538;23;20636;-87
2022/11/17 08:11:21;;;;;;;2.00;1.30;;;;;;;13.13;91.39;96147.06;5112674;23;20586;-87
2022/11/17 08:13:26;;;;;;;2.33;1.30;;;;;;;13.15;91.39;96149.53;5087249;23;20624;-86
2022/11/17 08:15:29;;;;;;;2.63;1.40;;;;;;;13.15;90.94;96141.66;5089139;23;20594;-87
2022/11/17 08:17:32;;;;;;;3.00;1.37;;;;;;;13.09;90.64;96153.63;5088958;23;20727;-86
2022/11/17 08:19:35;;;;;;;3.10;1.30;;;;;;;13.07;89.82;96154.78;5087402;23;20572;-87
2022/11/17 08:21:39;;;;;;;4.97;1.63;;;;;;;13.07;90.16;96147.75;5114482;23;20621;-87
2022/11/17 08:23:43;;;;;;;2.03;1.10;;;;;;;13.06;89.30;96148.72;5088007;23;20620;-87
2022/11/17 08:25:46;;;;;;;3.37;1.10;;;;;;;13.00;89.99;96159.84;5112621;23;20586;-88
2022/11/17 08:27:50;;;;;;;3.03;1.30;;;;;;;13.03;89.94;96158.72;5086363;23;20623;-88
2022/11/17 08:29:55;;;;;;;3.17;1.37;;;;;;;13.00;90.26;96157.22;5088478;23;21189;-87
2022/11/17 08:31:58;;;;;;;4.90;1.30;;;;;;;12.94;89.04;96160.50;5087413;23;20627;-88
2022/11/17 08:34:01;;;;;;;4.40;2.70;;;;;;;12.89;89.08;96162.00;5113280;23;20643;-88
2022/11/17 08:36:06;;;;;;;1.80;0.90;;;;;;;12.92;89.20;96152.03;5109906;23;20586;-88
2022/11/17 08:38:10;;;;;;;3.33;1.20;;;;;;;12.96;88.19;96149.88;5089444;23;20612;-88
2022/11/17 08:40:14;;;;;;;1.50;0.90;;;;;;;12.96;88.52;96142.88;5112301;23;21117;-88
2022/11/17 08:42:17;;;;;;;4.13;1.10;;;;;;;13.00;88.96;96154.63;5087559;23;20583;-88
2022/11/17 08:44:20;;;;;;;1.70;0.93;;;;;;;12.98;87.96;96159.22;5089162;23;20618;-88
2022/11/17 08:46:25;;;;;;;2.23;0.97;;;;;;;12.93;88.50;96158.91;5112702;23;20579;-87
2022/11/17 08:48:30;;;;;;;6.83;3.60;;;;;;;12.96;88.34;96158.56;5113292;23;20614;-87
2022/11/17 08:50:33;;;;;;;4.50;1.40;;;;;;;12.94;88.34;96149.22;5112842;23;20621;-87
2022/11/17 08:52:36;;;;;;;2.83;1.00;;;;;;;12.91;87.18;96155.59;5115772;23;21114;-87
2022/11/17 08:54:40;;;;;;;2.40;0.80;;;;;;;12.96;88.15;96153.34;5114674;23;20586;-88
2022/11/17 08:56:44;;;;;;;2.30;1.00;;;;;;;12.94;88.07;96147.44;5114656;23;20665;-87
2022/11/17 08:58:49;;;;;;;4.03;1.10;;;;;;;12.92;89.36;96152.03;5114227;23;20571;-87
2022/11/17 09:00:52;;;;;;;1.40;0.83;;;;;;;12.95;89.05;96156.91;5089147;23;20668;-87
2022/11/17 09:02:56;;;;;;;3.17;1.00;;;;;;;12.96;88.86;96161.19;5092479;23;20638;-88
2022/11/17 09:05:00;;;;;;;3.13;1.10;;;;;;;12.98;88.95;96172.28;5116481;23;20611;-89
2022/11/17 09:07:03;;;;;;;1.80;1.00;;;;;;;13.01;88.78;96161.50;5090840;23;20754;-87
2022/11/17 09:09:06;;;;;;;1.87;0.90;;;;;;;13.10;88.62;96159.69;5115082;23;20578;-89
2022/11/17 09:11:11;;;;;;;2.80;0.80;;;;;;;13.18;88.47;96167.50;5089189;23;20628;-88
2022/11/17 09:13:14;;;;;;;3.23;1.40;;;;;;;13.15;87.67;96165.22;5114957;23;20576;-88
2022/11/17 09:15:21;;;;;;;2.97;1.10;;;;;;;13.11;88.18;96172.59;5087621;23;20588;-88
2022/11/17 09:17:24;;;;;;;2.57;0.83;;;;;;;13.09;88.25;96174.56;5090374;23;20666;-88
2022/11/17 09:19:29;;;;;;;1.90;1.00;;;;;;;13.09;87.95;96168.50;5117190;23;20579;-89
2022/11/17 09:21:32;;;;;;;2.77;1.10;;;;;;;13.01;88.39;96179.00;5114244;23;20643;-88
2022/11/17 09:23:36;;;;;;;3.30;1.17;;;;;;;13.01;89.61;96185.03;5088442;23;20575;-88
2022/11/17 09:25:40;;;;;;;2.43;0.97;;;;;;;12.98;89.74;96187.19;5090498;23;20622;-89
2022/11/17 09:27:43;;;;;;;2.80;0.90;;;;;;;12.97;88.65;96186.34;5091820;23;20571;-87
2022/11/17 09:29:46;;;;;;;3.30;0.90;;;;;;;13.00;89.32;96180.78;5092398;23;20575;-87
2022/11/17 09:31:49;;;;;;;2.20;1.00;;;;;;;12.99;89.38;96194.88;5091001;23;20580;-88
2022/11/17 09:33:53;;;;;;;3.47;1.13;;;;;;;12.90;89.51;96185.38;5090798;23;20588;-88
2022/11/17 09:35:58;;;;;;;2.50;1.10;;;;;;;12.89;90.71;96190.78;5114054;23;20612;-89
2022/11/17 09:38:01;;;;;;;4.97;1.03;;;;;;;12.88;90.29;96192.56;5115471;23;20558;-88
2022/11/17 09:40:05;;;;;;;1.80;0.83;;;;;;;12.86;90.09;96198.97;5114592;23;20625;-88
2022/11/17 09:42:13;;;;;;;2.30;0.80;;;;;;;12.85;89.95;96194.72;5088350;23;21397;-88
2022/11/17 09:44:24;;;;;;;4.00;1.20;;;;;;;12.84;90.00;96200.94;5090256;23;20909;-88
2022/11/17 09:46:32;;;;;;;1.80;0.70;;;;;;;12.79;89.99;96204.03;5114036;23;20666;-88
2022/11/17 09:48:40;;;;;;;3.40;0.90;;;;;;;12.74;89.38;96201.06;5114814;23;20591;-88
2022/11/17 09:50:45;;;;;;;1.80;0.80;;;;;;;12.71;91.24;96211.84;5089108;23;20606;-88
2022/11/17 09:52:59;;;;;;;2.30;0.87;;;;;;;12.68;89.01;96209.56;5087867;23;20583;-88
2022/11/17 09:55:21;;;;;;;4.47;0.97;;;;;;;12.65;89.76;96203.03;5113942;23;20622;-88
2022/11/17 09:57:45;;;;;;;2.83;0.83;;;;;;;12.61;89.29;96193.88;5088448;23;20621;-87
2022/11/17 10:00:02;;;;;;;2.30;0.77;;;;;;;12.67;89.04;96207.09;5091007;23;21123;-88
2022/11/17 10:02:10;;;;;;;3.40;0.90;;;;;;;12.68;89.28;96200.09;5114057;23;20568;-88
2022/11/17 10:04:15;;;;;;;3.10;1.00;;;;;;;12.75;89.78;96213.16;5091760;23;21206;-88
2022/11/17 10:06:20;;;;;;;3.40;0.90;;;;;;;12.74;89.66;96210.72;5090168;23;20611;-89
2022/11/17 10:08:32;;;;;;;2.13;0.80;;;;;;;12.73;89.80;96215.13;5116585;23;20646;-89
2022/11/17 10:10:40;;;;;;;1.60;0.80;;;;;;;12.73;89.66;96209.91;5088853;23;20646;-88
2022/11/17 10:12:49;;;;;;;4.63;1.27;;;;;;;12.70;89.79;96215.47;5115130;23;21210;-89
2022/11/17 10:14:52;;;;;;;3.07;0.80;;;;;;;12.73;90.38;96207.28;5114764;23;20574;-88
2022/11/17 10:16:57;;;;;;;3.33;1.10;;;;;;;12.72;90.38;96215.28;5114537;23;20582;-88